createdAt,value
2023-02-14T02:00:50.130Z,53.43
2023-02-14T02:02:33.973Z,49.33
2023-02-14T02:03:41.746Z,50.05
2023-02-14T02:04:47.098Z,54.30
2023-02-14T02:05:53.965Z,51.22
2023-02-14T02:07:00.666Z,51.77
2023-02-14T02:08:03.169Z,51.00
2023-02-14T02:09:28.910Z,49.05
2023-02-14T02:10:31.297Z,49.82
2023-02-14T02:11:34.496Z,47.62
2023-02-14T02:12:38.259Z,48.85
2023-02-14T02:13:40.667Z,49.78
2023-02-14T02:14:43.672Z,50.05
2023-02-14T02:15:54.425Z,49.65
2023-02-14T02:17:06.448Z,51.47
2023-02-14T02:18:19.049Z,50.33
2023-02-14T02:19:33.490Z,49.05
2023-02-14T02:20:41.896Z,48.23
2023-02-14T02:22:21.809Z,49.25
2023-02-14T02:23:42.210Z,47.30
2023-02-14T02:24:50.241Z,46.12
2023-02-14T02:26:30.064Z,45.03
2023-02-14T02:27:53.632Z,44.05
2023-02-14T02:29:19.951Z,46.32
2023-02-14T02:30:43.870Z,44.92
2023-02-14T02:32:08.262Z,45.67
2023-02-14T02:33:13.281Z,47.53
2023-02-14T02:34:53.177Z,44.92
2023-02-14T02:36:09.085Z,46.42
2023-02-14T02:37:38.593Z,46.35
2023-02-14T02:39:08.314Z,46.18
2023-02-14T02:40:29.073Z,45.93
2023-02-14T02:41:46.813Z,48.13
2023-02-14T02:43:02.789Z,48.85
2023-02-14T02:44:16.919Z,49.02
2023-02-14T02:45:29.448Z,50.95
2023-02-14T02:46:49.101Z,52.50
2023-02-14T02:48:11.163Z,51.08
2023-02-14T02:50:08.795Z,52.10
2023-02-14T02:51:36.938Z,53.87
2023-02-14T02:53:07.328Z,55.75
2023-02-14T02:54:26.302Z,57.20
2023-02-14T02:55:53.194Z,57.33
2023-02-14T02:57:00.125Z,56.70
2023-02-14T02:58:03.366Z,55.05
2023-02-14T02:59:20.964Z,54.48
2023-02-14T03:00:25.170Z,49.12
2023-02-14T03:01:31.672Z,50.58
2023-02-14T03:03:00.189Z,51.77
2023-02-14T03:04:25.643Z,49.87
2023-02-14T03:05:29.433Z,50.90
2023-02-14T03:06:32.981Z,49.83
2023-02-14T03:07:37.536Z,51.60
2023-02-14T03:08:39.854Z,49.23
2023-02-14T03:09:42.258Z,50.60
2023-02-14T03:10:45.099Z,50.75
2023-02-14T03:12:25.850Z,49.30
2023-02-14T03:13:37.641Z,50.52
2023-02-14T03:14:55.646Z,50.90
2023-02-14T03:16:27.317Z,89.05
2023-02-14T03:17:36.920Z,55.15
2023-02-14T03:19:24.048Z,60.92
2023-02-14T03:20:41.817Z,97.77
2023-02-14T03:22:05.788Z,92.90
2023-02-14T03:23:30.030Z,89.20
2023-02-14T03:25:03.794Z,96.67
2023-02-14T03:26:19.046Z,97.30
2023-02-14T03:27:33.002Z,94.38
2023-02-14T03:29:05.324Z,84.00
2023-02-14T03:30:33.590Z,84.90
2023-02-14T03:31:56.102Z,83.50
2023-02-14T03:33:14.178Z,86.80
2023-02-14T03:34:35.546Z,94.00
2023-02-14T03:36:02.055Z,80.52
2023-02-14T03:37:20.236Z,81.72
2023-02-14T03:38:31.697Z,78.02
2023-02-14T03:39:45.873Z,76.62
2023-02-14T03:40:54.768Z,74.83
2023-02-14T03:42:06.353Z,76.27
2023-02-14T03:43:13.334Z,73.62
2023-02-14T03:44:21.520Z,75.12
2023-02-14T03:45:32.929Z,74.60
2023-02-14T03:46:44.666Z,74.87
2023-02-14T03:47:48.861Z,72.43
2023-02-14T03:48:54.172Z,73.92
2023-02-14T03:50:04.437Z,72.92
2023-02-14T03:51:09.685Z,71.32
2023-02-14T03:52:14.185Z,70.10
2023-02-14T03:53:21.846Z,68.15
2023-02-14T03:54:25.926Z,66.38
2023-02-14T03:55:54.536Z,67.88
2023-02-14T03:57:21.983Z,68.13
2023-02-14T03:58:32.860Z,65.80
2023-02-14T03:59:35.608Z,64.97
2023-02-14T04:00:41.273Z,64.70
2023-02-14T04:01:49.838Z,64.23
2023-02-14T04:02:56.384Z,64.15
2023-02-14T04:04:00.772Z,63.48
2023-02-14T04:05:15.567Z,62.67
2023-02-14T04:06:20.152Z,64.83
2023-02-14T04:07:23.897Z,64.15
2023-02-14T04:08:28.842Z,62.42
2023-02-14T04:09:31.207Z,64.27
2023-02-14T04:10:34.077Z,64.13
2023-02-14T04:11:38.614Z,64.72
2023-02-14T04:12:40.998Z,64.78
2023-02-14T04:13:43.360Z,63.57
2023-02-14T04:14:45.753Z,64.72
2023-02-14T04:15:48.172Z,67.65
2023-02-14T04:17:09.580Z,65.95
2023-02-14T04:18:30.353Z,65.78
2023-02-14T04:19:32.728Z,68.45
2023-02-14T04:20:35.453Z,66.90
2023-02-14T04:21:37.844Z,68.23
2023-02-14T04:22:40.203Z,74.12
2023-02-14T04:23:42.649Z,78.83
2023-02-14T04:24:45.081Z,69.73
2023-02-14T04:25:47.507Z,66.77
2023-02-14T04:27:10.168Z,66.87
2023-02-14T04:28:13.613Z,64.25
2023-02-14T04:29:16.019Z,67.25
2023-02-14T04:30:20.885Z,68.33
2023-02-14T04:31:23.399Z,69.55
2023-02-14T04:32:25.834Z,69.18
2023-02-14T04:33:28.298Z,68.80
2023-02-14T04:34:30.671Z,68.78
2023-02-14T04:35:33.053Z,68.62
2023-02-14T04:36:35.374Z,68.95
2023-02-14T04:37:37.912Z,71.65
2023-02-14T04:38:40.502Z,69.68
2023-02-14T04:39:42.856Z,69.50
2023-02-14T04:40:45.250Z,70.45
2023-02-14T04:41:47.583Z,76.50
2023-02-14T04:42:49.982Z,84.55
2023-02-14T04:43:52.314Z,89.38
2023-02-14T04:44:54.674Z,80.97
2023-02-14T04:45:57.133Z,67.75
2023-02-14T04:46:59.705Z,64.90
2023-02-14T04:48:02.034Z,66.23
2023-02-14T04:49:04.498Z,69.35
2023-02-14T04:50:07.620Z,69.77
2023-02-14T04:51:10.133Z,73.93
2023-02-14T04:52:13.288Z,75.63
2023-02-14T04:53:15.624Z,71.27
2023-02-14T04:54:18.009Z,72.77
2023-02-14T04:55:20.362Z,72.73
2023-02-14T04:56:22.757Z,70.92
2023-02-14T04:57:25.148Z,71.22
2023-02-14T04:58:27.573Z,74.47
2023-02-14T04:59:30.126Z,74.87
2023-02-14T05:00:32.512Z,75.40
2023-02-14T05:01:34.908Z,78.32
2023-02-14T05:02:37.396Z,79.08
2023-02-14T05:03:39.741Z,82.52
2023-02-14T05:04:42.175Z,80.72
2023-02-14T05:05:44.526Z,82.02
2023-02-14T05:06:47.073Z,78.15
2023-02-14T05:07:49.455Z,73.50
2023-02-14T05:08:51.795Z,69.62
2023-02-14T05:09:54.171Z,74.27
2023-02-14T05:10:56.687Z,77.45
2023-02-14T05:11:59.206Z,71.63
2023-02-14T05:13:02.024Z,70.07
2023-02-14T05:14:04.492Z,68.80
2023-02-14T05:15:07.103Z,65.40
2023-02-14T05:16:09.553Z,64.43
2023-02-14T05:17:11.985Z,64.07
2023-02-14T05:18:14.467Z,63.77
2023-02-14T05:19:16.840Z,64.62
2023-02-14T05:20:19.277Z,67.75
2023-02-14T05:21:24.071Z,68.33
2023-02-14T05:22:26.400Z,69.65
2023-02-14T05:23:28.763Z,67.03
2023-02-14T05:24:31.296Z,66.00
2023-02-14T05:25:33.640Z,66.15
2023-02-14T05:26:35.972Z,67.77
2023-02-14T05:27:38.377Z,64.22
2023-02-14T05:28:41.172Z,65.52
2023-02-14T05:29:43.577Z,65.45
2023-02-14T05:30:46.524Z,63.40
2023-02-14T05:31:49.033Z,65.78
2023-02-14T05:32:51.418Z,80.48
2023-02-14T05:33:53.799Z,72.05
2023-02-14T05:34:56.177Z,69.42
2023-02-14T05:36:00.298Z,64.60
2023-02-14T05:37:03.671Z,62.72
2023-02-14T05:38:06.100Z,63.78
2023-02-14T05:39:08.434Z,62.02
2023-02-14T05:40:13.518Z,63.37
2023-02-14T05:41:15.948Z,60.03
2023-02-14T05:42:18.344Z,59.65
2023-02-14T05:43:21.561Z,60.35
2023-02-14T05:44:23.986Z,60.00
2023-02-14T05:45:26.512Z,62.70
2023-02-14T05:46:28.931Z,63.57
2023-02-14T05:47:31.529Z,63.77
2023-02-14T05:48:34.209Z,62.50
2023-02-14T05:49:36.778Z,61.95
2023-02-14T05:50:39.324Z,60.97
2023-02-14T05:51:43.747Z,60.97
2023-02-14T05:52:46.086Z,66.20
2023-02-14T05:53:48.491Z,73.68
2023-02-14T05:54:51.125Z,76.72
2023-02-14T05:55:53.496Z,74.82
2023-02-14T05:56:56.488Z,75.25
2023-02-14T05:57:59.016Z,80.62
2023-02-14T05:59:01.409Z,84.67
2023-02-14T06:00:06.628Z,84.00
2023-02-14T06:01:09.129Z,86.80
2023-02-14T06:02:11.939Z,86.42
2023-02-14T06:03:14.296Z,85.08
2023-02-14T06:04:16.707Z,82.38
2023-02-14T06:05:20.271Z,84.25
2023-02-14T06:06:22.609Z,87.88
2023-02-14T06:07:25.224Z,78.03
2023-02-14T06:08:27.644Z,68.63
2023-02-14T06:09:30.066Z,65.93
2023-02-14T06:10:32.498Z,65.32
2023-02-14T06:11:34.954Z,63.35
2023-02-14T06:12:37.504Z,64.83
2023-02-14T06:13:41.595Z,64.35
2023-02-14T06:14:45.200Z,64.18
2023-02-14T06:15:47.630Z,64.07
2023-02-14T06:16:50.084Z,64.00
2023-02-14T06:17:54.508Z,63.12
2023-02-14T06:18:56.888Z,64.75
2023-02-14T06:19:59.235Z,63.82
2023-02-14T06:21:01.887Z,64.05
2023-02-14T06:22:04.922Z,63.88
2023-02-14T06:23:07.264Z,61.90
2023-02-14T06:24:09.718Z,63.27
2023-02-14T06:25:12.070Z,63.17
2023-02-14T06:26:14.445Z,62.58
2023-02-14T06:27:17.020Z,64.67
2023-02-14T06:28:19.370Z,63.08
2023-02-14T06:29:21.752Z,59.83
2023-02-14T06:30:24.711Z,62.77
2023-02-14T06:31:27.336Z,62.53
2023-02-14T06:32:29.740Z,64.00
2023-02-14T06:33:32.091Z,64.58
2023-02-14T06:34:34.590Z,64.23
2023-02-14T06:35:36.953Z,66.10
2023-02-14T06:36:39.276Z,65.45
2023-02-14T06:37:45.333Z,66.58
2023-02-14T06:38:48.688Z,67.27
2023-02-14T06:39:52.918Z,65.53
2023-02-14T06:40:55.488Z,67.52
2023-02-14T06:41:57.878Z,66.88
2023-02-14T06:43:00.426Z,67.17
2023-02-14T06:44:03.852Z,68.52
2023-02-14T06:45:10.101Z,85.42
2023-02-14T06:46:12.595Z,77.67
2023-02-14T06:47:15.217Z,76.82
2023-02-14T06:48:21.695Z,74.25
2023-02-14T06:49:24.666Z,81.80
2023-02-14T06:50:27.313Z,84.82
2023-02-14T06:51:34.306Z,87.52
2023-02-14T06:52:38.022Z,87.25
2023-02-14T06:53:44.926Z,88.67
2023-02-14T06:54:49.835Z,88.32
2023-02-14T06:55:52.308Z,88.13
2023-02-14T06:56:56.224Z,89.25
2023-02-14T06:58:01.755Z,87.40
2023-02-14T06:59:11.152Z,91.17
2023-02-14T07:00:16.752Z,92.50
2023-02-14T07:01:19.331Z,91.28
2023-02-14T07:02:24.697Z,90.60
2023-02-14T07:03:27.663Z,91.45
2023-02-14T07:04:31.362Z,91.43
2023-02-14T07:05:38.385Z,91.07
2023-02-14T07:06:40.892Z,92.48
2023-02-14T07:07:44.161Z,94.22
2023-02-14T07:08:48.591Z,91.68
2023-02-14T07:09:52.435Z,93.38
2023-02-14T07:10:58.737Z,94.37
2023-02-14T07:12:02.523Z,92.95
2023-02-14T07:13:05.598Z,93.93
2023-02-14T07:14:07.984Z,94.60
2023-02-14T07:15:12.411Z,93.95
2023-02-14T07:16:14.822Z,94.87
2023-02-14T07:17:17.420Z,96.13
2023-02-14T07:18:19.802Z,95.48
2023-02-14T07:19:22.204Z,94.17
2023-02-14T07:20:25.009Z,92.90
2023-02-14T07:21:27.407Z,94.52
2023-02-14T07:22:30.403Z,96.78
2023-02-14T07:23:33.148Z,94.10
2023-02-14T07:24:35.578Z,102.52
2023-02-14T07:25:38.410Z,109.35
2023-02-14T07:26:40.791Z,109.30
2023-02-14T07:27:43.741Z,113.87
2023-02-14T07:28:49.135Z,120.97
2023-02-14T07:29:51.735Z,111.10
2023-02-14T07:30:54.403Z,96.70
2023-02-14T07:31:57.074Z,100.98
2023-02-14T07:32:59.789Z,95.48
2023-02-14T07:34:02.255Z,81.53
2023-02-14T07:35:05.105Z,74.72
2023-02-14T07:36:08.826Z,72.05
2023-02-14T07:37:11.342Z,75.03
2023-02-14T07:38:13.780Z,73.50
2023-02-14T07:39:16.264Z,69.75
2023-02-14T07:40:20.133Z,71.53
2023-02-14T07:41:22.632Z,71.58
2023-02-14T07:42:25.056Z,70.85
2023-02-14T07:43:27.834Z,69.48
2023-02-14T07:44:30.356Z,79.18
2023-02-14T07:45:32.783Z,101.35
2023-02-14T07:46:35.349Z,99.67
2023-02-14T07:47:38.143Z,121.30
2023-02-14T07:48:40.657Z,126.08
2023-02-14T07:49:43.123Z,114.37
2023-02-14T07:50:45.636Z,76.95
2023-02-14T07:51:48.090Z,81.22
2023-02-14T07:52:50.663Z,88.12
2023-02-14T07:53:53.118Z,96.38
2023-02-14T07:54:57.425Z,102.10
2023-02-14T07:56:01.764Z,93.68
2023-02-14T07:57:07.218Z,67.22
2023-02-14T07:58:17.204Z,61.47
2023-02-14T07:59:25.955Z,56.03
2023-02-14T08:00:49.134Z,59.90
2023-02-14T08:01:51.885Z,61.35
2023-02-14T08:02:56.099Z,53.33
2023-02-14T08:03:59.416Z,53.38
2023-02-14T08:05:24.638Z,51.98
2023-02-14T08:07:23.117Z,50.38
2023-02-14T08:08:28.016Z,48.77
2023-02-14T08:09:30.571Z,48.92
2023-02-14T08:10:32.971Z,49.32
2023-02-14T08:12:04.891Z,48.87
2023-02-14T08:13:07.369Z,52.02
2023-02-14T08:14:09.767Z,51.00
2023-02-14T08:15:30.665Z,49.33
2023-02-14T08:16:34.765Z,47.72
2023-02-14T08:17:37.259Z,50.35
2023-02-14T08:18:41.597Z,47.47
2023-02-14T08:19:44.034Z,51.18
2023-02-14T08:20:49.859Z,47.95
2023-02-14T08:21:52.525Z,45.40
2023-02-14T08:22:54.995Z,46.23
2023-02-14T08:23:57.908Z,45.35
2023-02-14T08:25:00.271Z,44.62
2023-02-14T08:26:04.858Z,45.23
2023-02-14T08:27:07.406Z,43.82
2023-02-14T08:28:10.351Z,45.40
2023-02-14T08:29:13.370Z,45.02
2023-02-14T08:30:16.926Z,44.60
2023-02-14T08:31:36.083Z,44.95
2023-02-14T08:32:38.922Z,45.75
2023-02-14T08:33:43.434Z,46.92
2023-02-14T08:34:45.935Z,48.75
2023-02-14T08:35:48.817Z,47.45
2023-02-14T08:36:52.159Z,48.72
2023-02-14T08:37:55.087Z,48.30
2023-02-14T08:38:57.937Z,49.90
2023-02-14T08:40:00.465Z,50.83
2023-02-14T08:41:44.743Z,49.13
2023-02-14T08:42:47.703Z,45.52
2023-02-14T08:43:50.526Z,46.33
2023-02-14T08:45:10.767Z,49.63
2023-02-14T08:46:15.146Z,48.32
2023-02-14T08:47:23.555Z,48.83
2023-02-14T08:48:37.374Z,51.63
2023-02-14T08:49:42.670Z,52.63
2023-02-14T08:50:52.221Z,54.85
2023-02-14T08:52:03.094Z,51.22
2023-02-14T08:53:13.802Z,54.90
2023-02-14T08:54:26.985Z,62.37
2023-02-14T08:56:27.007Z,63.17
2023-02-14T08:57:38.824Z,55.15
2023-02-14T08:59:01.033Z,58.60
2023-02-14T09:00:07.408Z,57.47
2023-02-14T09:01:11.996Z,53.38
2023-02-14T09:02:17.958Z,48.92
2023-02-14T09:03:35.178Z,49.38
2023-02-14T09:04:39.788Z,44.88
2023-02-14T09:05:43.132Z,43.88
2023-02-14T09:06:45.631Z,43.52
2023-02-14T09:07:47.978Z,44.08
2023-02-14T09:08:50.741Z,44.58
2023-02-14T09:09:53.114Z,43.48
2023-02-14T09:10:55.597Z,44.27
2023-02-14T09:11:58.120Z,43.88
2023-02-14T09:13:00.481Z,42.92
2023-02-14T09:14:03.065Z,43.08
2023-02-14T09:15:05.834Z,43.48
2023-02-14T09:16:10.768Z,44.07
2023-02-14T09:17:13.818Z,44.55
2023-02-14T09:18:16.476Z,44.20
2023-02-14T09:19:18.909Z,44.97
2023-02-14T09:20:21.429Z,44.12
2023-02-14T09:21:26.976Z,43.33
2023-02-14T09:22:29.464Z,44.63
2023-02-14T09:23:31.915Z,45.02
2023-02-14T09:24:36.640Z,47.42
2023-02-14T09:25:39.092Z,49.77
2023-02-14T09:26:42.386Z,48.70
2023-02-14T09:27:44.773Z,48.17
2023-02-14T09:28:47.920Z,46.63
2023-02-14T09:29:50.449Z,47.73
2023-02-14T09:30:54.465Z,47.20
2023-02-14T09:31:59.823Z,48.70
2023-02-14T09:33:05.397Z,48.37
2023-02-14T09:34:07.826Z,49.88
2023-02-14T09:35:29.138Z,49.65
2023-02-14T09:36:34.063Z,47.70
2023-02-14T09:37:41.560Z,48.25
2023-02-14T09:38:45.727Z,48.60
2023-02-14T09:40:03.154Z,48.32
2023-02-14T09:41:35.389Z,45.73
2023-02-14T09:43:06.747Z,44.57
2023-02-14T09:44:26.742Z,45.40
2023-02-14T09:45:31.477Z,44.58
2023-02-14T09:46:43.353Z,44.92
2023-02-14T09:47:55.912Z,45.22
2023-02-14T09:49:01.307Z,47.87
2023-02-14T09:50:18.730Z,45.47
2023-02-14T09:51:27.420Z,46.90
2023-02-14T09:52:32.700Z,47.78
2023-02-14T09:54:12.600Z,45.05
2023-02-14T09:55:18.246Z,44.53
2023-02-14T09:56:40.047Z,43.87
2023-02-14T09:58:08.397Z,43.20
2023-02-14T09:59:35.028Z,40.73
2023-02-14T10:00:46.834Z,41.42
2023-02-14T10:01:58.976Z,41.68
2023-02-14T10:03:25.808Z,41.52
2023-02-14T10:04:48.034Z,41.42
2023-02-14T10:06:28.137Z,41.85
2023-02-14T10:07:57.852Z,44.05
2023-02-14T10:09:32.662Z,43.32
2023-02-14T10:10:43.266Z,44.67
2023-02-14T10:11:47.723Z,45.50
2023-02-14T10:13:00.844Z,45.53
2023-02-14T10:14:17.758Z,44.40
2023-02-14T10:15:34.658Z,49.58
2023-02-14T10:16:44.364Z,47.67
2023-02-14T10:17:52.910Z,45.23
2023-02-14T10:19:04.479Z,45.67
2023-02-14T10:20:20.051Z,45.93
2023-02-14T10:21:30.223Z,45.18
2023-02-14T10:22:42.915Z,45.15
2023-02-14T10:23:54.545Z,45.45
2023-02-14T10:25:08.660Z,44.95
2023-02-14T10:26:16.347Z,47.55
2023-02-14T10:27:42.384Z,45.15
2023-02-14T10:28:49.912Z,46.20
2023-02-14T10:29:52.287Z,46.23
2023-02-14T10:31:06.286Z,45.50
2023-02-14T10:32:14.848Z,46.92
2023-02-14T10:33:19.734Z,45.77
2023-02-14T10:34:46.339Z,45.28
2023-02-14T10:35:53.252Z,46.02
2023-02-14T10:37:27.993Z,47.65
2023-02-14T10:38:44.255Z,48.72
2023-02-14T10:40:00.743Z,46.68
2023-02-14T10:41:33.071Z,46.68
2023-02-14T10:42:55.261Z,45.78
2023-02-14T10:46:18.536Z,46.88
2023-02-14T10:49:43.110Z,46.33
2023-02-14T10:51:03.703Z,48.07
2023-02-14T10:52:29.250Z,45.33
2023-02-14T10:53:50.188Z,47.87
2023-02-14T10:54:58.573Z,52.08
2023-02-14T10:56:08.570Z,48.95
2023-02-14T10:57:33.039Z,47.15
2023-02-14T10:58:38.853Z,44.45
2023-02-14T11:00:02.753Z,46.10
2023-02-14T11:01:13.179Z,47.55
2023-02-14T11:02:18.174Z,50.90
2023-02-14T11:03:20.577Z,48.65
2023-02-14T11:04:26.440Z,47.60
2023-02-14T11:05:31.749Z,48.78
2023-02-14T11:06:34.567Z,48.48
2023-02-14T11:07:37.331Z,45.58
2023-02-14T11:08:42.347Z,49.70
2023-02-14T11:09:45.248Z,51.25
2023-02-14T11:10:48.478Z,47.42
2023-02-14T11:11:56.319Z,45.97
2023-02-14T11:12:58.833Z,46.32
2023-02-14T11:15:27.816Z,40.28
2023-02-14T11:16:36.703Z,47.27
2023-02-14T11:17:39.757Z,49.00
2023-02-14T11:18:42.466Z,46.02
2023-02-14T11:20:03.083Z,46.55
2023-02-14T11:21:10.963Z,49.37
2023-02-14T11:22:30.226Z,37.93
2023-02-14T11:23:35.986Z,36.77
2023-02-14T11:24:44.070Z,39.88
2023-02-14T11:25:55.147Z,38.55
2023-02-14T11:27:15.390Z,37.15
2023-02-14T11:28:24.105Z,35.57
2023-02-14T11:29:42.819Z,34.63
2023-02-14T11:30:56.992Z,34.87
2023-02-14T11:32:15.099Z,34.63
2023-02-14T11:33:30.708Z,36.18
2023-02-14T11:35:02.739Z,36.03
2023-02-14T11:36:13.803Z,34.40
2023-02-14T11:37:59.676Z,33.28
2023-02-14T11:39:23.705Z,33.95
2023-02-14T11:40:51.651Z,35.92
2023-02-14T11:41:59.967Z,36.73
2023-02-14T11:43:19.882Z,37.87
2023-02-14T11:44:30.645Z,35.92
2023-02-14T11:45:39.116Z,35.55
2023-02-14T11:46:52.810Z,36.60
2023-02-14T11:48:38.420Z,35.28
2023-02-14T11:54:07.610Z,36.68
2023-02-14T11:55:34.837Z,38.17
2023-02-14T11:57:14.050Z,37.97
2023-02-14T11:58:32.410Z,39.03
2023-02-14T11:59:51.638Z,39.30
2023-02-14T12:00:54.985Z,40.05
2023-02-14T12:02:02.900Z,38.82
2023-02-14T12:03:07.370Z,38.47
2023-02-14T12:04:18.954Z,39.32
2023-02-14T12:05:46.508Z,40.30
2023-02-14T12:06:49.601Z,41.32
2023-02-14T12:07:58.421Z,38.87
2023-02-14T12:09:25.790Z,39.00
2023-02-14T12:10:38.296Z,38.05
2023-02-14T12:11:41.414Z,38.25
2023-02-14T12:12:51.004Z,39.58
2023-02-14T12:13:56.151Z,37.72
2023-02-14T12:15:54.604Z,36.90
2023-02-14T12:17:11.979Z,36.62
2023-02-14T12:18:29.847Z,35.55
2023-02-14T12:19:54.445Z,33.53
2023-02-14T12:21:13.147Z,34.85
2023-02-14T12:22:20.957Z,35.82
2023-02-14T12:23:35.451Z,33.35
2023-02-14T12:25:00.366Z,35.78
2023-02-14T12:26:09.762Z,35.72
2023-02-14T12:27:12.287Z,36.87
2023-02-14T12:28:23.686Z,37.82
2023-02-14T12:29:42.152Z,37.10
2023-02-14T12:30:45.623Z,37.88
2023-02-14T12:31:58.928Z,36.83
2023-02-14T12:33:05.065Z,37.63
2023-02-14T12:34:11.312Z,36.75
2023-02-14T12:35:48.619Z,37.53
2023-02-14T12:37:29.518Z,35.03
2023-02-14T12:39:16.747Z,35.02
2023-02-14T12:40:21.543Z,33.98
2023-02-14T12:41:44.961Z,35.22
2023-02-14T12:44:07.371Z,34.53
2023-02-14T12:45:24.951Z,36.27
2023-02-14T12:46:40.652Z,34.55
2023-02-14T12:47:53.236Z,36.40
2023-02-14T12:49:28.913Z,37.58
2023-02-14T12:50:46.880Z,35.03
2023-02-14T12:52:00.228Z,36.60
2023-02-14T12:53:21.135Z,36.85
2023-02-14T12:54:44.308Z,36.07
2023-02-14T12:56:10.885Z,35.73
2023-02-14T12:57:43.863Z,35.88
2023-02-14T12:59:12.762Z,38.32
2023-02-14T13:01:29.204Z,38.57
2023-02-14T13:02:46.715Z,37.37
2023-02-14T13:04:13.741Z,37.45
2023-02-14T13:05:18.111Z,38.53
2023-02-14T13:07:10.735Z,38.15
2023-02-14T13:08:49.697Z,38.80
2023-02-14T13:10:32.752Z,37.97
2023-02-14T13:11:50.612Z,37.80
2023-02-14T13:13:04.505Z,38.47
2023-02-14T13:14:31.040Z,37.83
2023-02-14T13:15:53.157Z,38.90
2023-02-14T13:17:18.148Z,39.47
2023-02-14T13:18:48.881Z,39.20
2023-02-14T13:20:03.303Z,40.17
2023-02-14T13:21:13.159Z,39.78
2023-02-14T13:22:19.223Z,39.13
2023-02-14T13:23:35.662Z,38.20
2023-02-14T13:27:23.174Z,37.75
2023-02-14T13:29:50.630Z,38.15
2023-02-14T13:30:55.155Z,38.30
2023-02-14T13:32:01.974Z,38.27
2023-02-14T13:33:10.400Z,38.32
2023-02-14T13:34:28.240Z,38.08
2023-02-14T13:35:32.375Z,38.30
2023-02-14T13:36:36.515Z,39.23
2023-02-14T13:37:39.329Z,40.35
2023-02-14T13:38:48.689Z,39.97
2023-02-14T13:40:01.901Z,39.32
2023-02-14T13:41:05.575Z,40.67
2023-02-14T13:42:08.002Z,41.32
2023-02-14T13:43:10.411Z,39.78
2023-02-14T13:44:38.680Z,39.05
2023-02-14T13:45:41.101Z,39.90
2023-02-14T13:46:48.322Z,39.55
2023-02-14T13:48:03.641Z,39.18
2023-02-14T13:49:24.339Z,39.68
2023-02-14T13:50:27.348Z,38.33
2023-02-14T13:51:53.034Z,40.22
2023-02-14T13:52:55.867Z,38.85
2023-02-14T13:53:59.766Z,38.95
2023-02-14T13:55:07.842Z,39.52
2023-02-14T13:56:12.838Z,40.37
2023-02-14T13:57:36.564Z,39.27
2023-02-14T13:58:55.113Z,39.15
2023-02-14T14:00:19.100Z,39.20
2023-02-14T14:01:30.656Z,40.23
2023-02-14T14:02:44.290Z,40.55
2023-02-14T14:03:57.828Z,39.20
2023-02-14T14:05:03.108Z,39.53
2023-02-14T14:06:10.911Z,39.58
2023-02-14T14:07:13.554Z,39.62
2023-02-14T14:08:25.235Z,39.43
2023-02-14T14:09:43.344Z,38.68
2023-02-14T14:10:48.509Z,39.42
2023-02-14T14:11:51.518Z,38.02
2023-02-14T14:12:53.935Z,37.77
2023-02-14T14:14:01.879Z,37.92
2023-02-14T14:15:07.300Z,39.18
2023-02-14T14:16:27.709Z,39.18
2023-02-14T14:17:35.346Z,39.45
2023-02-14T14:18:43.392Z,37.43
2023-02-14T14:19:47.108Z,37.92
2023-02-14T14:20:49.677Z,38.07
2023-02-14T14:22:09.468Z,38.92
2023-02-14T14:23:45.168Z,38.60
2023-02-14T14:24:59.561Z,37.62
2023-02-14T14:26:02.471Z,38.15
2023-02-14T14:27:20.976Z,37.12
2023-02-14T14:28:26.532Z,38.53
2023-02-14T14:29:31.797Z,38.83
2023-02-14T14:30:34.487Z,38.00
2023-02-14T14:31:41.035Z,37.97
2023-02-14T14:32:45.889Z,36.98
2023-02-14T14:33:57.865Z,37.82
2023-02-14T14:35:04.929Z,37.25
2023-02-14T14:36:13.515Z,36.95
2023-02-14T14:37:19.486Z,38.52
2023-02-14T14:38:53.928Z,37.03
2023-02-14T14:40:02.453Z,38.18
2023-02-14T14:41:04.949Z,38.82
2023-02-14T14:42:18.200Z,36.98
2023-02-14T14:43:33.797Z,37.42
2023-02-14T14:44:38.082Z,37.47
2023-02-14T14:45:43.805Z,37.63
2023-02-14T14:46:46.884Z,38.35
2023-02-14T14:47:54.112Z,36.72
2023-02-14T14:48:57.518Z,36.40
2023-02-14T14:50:07.518Z,37.40
2023-02-14T14:51:21.958Z,37.23
2023-02-14T14:52:37.565Z,37.95
2023-02-14T14:53:47.185Z,37.07
2023-02-14T14:54:49.555Z,37.40
2023-02-14T14:55:52.290Z,36.25
2023-02-14T14:57:01.770Z,37.75
2023-02-14T14:58:09.318Z,38.15
2023-02-14T14:59:29.039Z,38.10
2023-02-14T15:00:34.584Z,37.05
2023-02-14T15:01:39.008Z,38.68
2023-02-14T15:02:41.351Z,38.43
2023-02-14T15:03:43.815Z,37.78
2023-02-14T15:04:46.193Z,37.35
2023-02-14T15:05:50.414Z,38.00
2023-02-14T15:06:52.875Z,38.15
2023-02-14T15:07:55.414Z,39.12
2023-02-14T15:08:57.834Z,38.12
2023-02-14T15:10:00.655Z,38.33
2023-02-14T15:11:11.081Z,38.97
2023-02-14T15:12:38.551Z,38.03
2023-02-14T15:13:53.535Z,37.60
2023-02-14T15:14:58.057Z,36.47
2023-02-14T15:16:03.480Z,36.75
2023-02-14T15:17:18.635Z,36.10
2023-02-14T15:18:21.707Z,36.57
2023-02-14T15:19:33.439Z,36.00
2023-02-14T15:20:36.994Z,34.98
2023-02-14T15:21:44.471Z,36.88
2023-02-14T15:22:49.897Z,38.20
2023-02-14T15:23:52.866Z,39.25
2023-02-14T15:24:55.756Z,39.50
2023-02-14T15:25:58.225Z,38.03
2023-02-14T15:27:02.109Z,37.28
2023-02-14T15:28:04.820Z,36.97
2023-02-14T15:29:07.597Z,36.78
2023-02-14T15:30:19.456Z,37.87
2023-02-14T15:31:22.255Z,37.60
2023-02-14T15:32:26.732Z,37.83
2023-02-14T15:33:31.563Z,36.00
2023-02-14T15:34:36.438Z,38.00
2023-02-14T15:35:42.399Z,39.27
2023-02-14T15:36:49.173Z,38.55
2023-02-14T15:37:52.399Z,36.50
2023-02-14T15:38:56.882Z,36.88
2023-02-14T15:39:59.925Z,36.42
2023-02-14T15:41:03.124Z,36.25
2023-02-14T15:42:06.375Z,36.07
2023-02-14T15:43:29.708Z,36.37
2023-02-14T15:44:32.636Z,35.98
2023-02-14T15:45:35.081Z,35.37
2023-02-14T15:46:39.551Z,34.87
2023-02-14T15:47:44.792Z,33.93
2023-02-14T15:48:48.020Z,32.73
2023-02-14T15:49:50.476Z,32.98
2023-02-14T15:50:56.597Z,33.12
2023-02-14T15:52:02.880Z,33.07
2023-02-14T15:53:17.424Z,32.48
2023-02-14T15:54:26.022Z,33.75
2023-02-14T15:55:28.945Z,32.97
2023-02-14T15:56:43.268Z,31.52
2023-02-14T15:57:55.379Z,30.65
2023-02-14T15:59:00.812Z,31.50
2023-02-14T16:00:11.663Z,31.83
2023-02-14T16:01:14.244Z,31.78
2023-02-14T16:02:17.327Z,31.43
2023-02-14T16:03:22.776Z,31.55
2023-02-14T16:04:31.372Z,33.08
2023-02-14T16:05:34.179Z,34.18
2023-02-14T16:06:44.781Z,33.12
2023-02-14T16:08:03.640Z,32.60
2023-02-14T16:09:26.198Z,33.00
2023-02-14T16:10:31.103Z,33.85
2023-02-14T16:11:38.151Z,33.12
2023-02-14T16:12:42.333Z,32.93
2023-02-14T16:13:46.579Z,31.87
2023-02-14T16:15:20.603Z,30.52
2023-02-14T16:16:23.100Z,31.67
2023-02-14T16:17:34.657Z,31.57
2023-02-14T16:18:45.971Z,29.93
2023-02-14T16:19:48.434Z,31.43
2023-02-14T16:20:51.432Z,33.82
2023-02-14T16:21:57.359Z,35.43
2023-02-14T16:23:22.227Z,39.80
2023-02-14T16:24:24.587Z,45.38
2023-02-14T16:25:26.962Z,43.05
2023-02-14T16:26:30.804Z,41.57
2023-02-14T16:27:33.648Z,38.98
2023-02-14T16:28:38.948Z,39.32
2023-02-14T16:29:41.632Z,37.13
2023-02-14T16:30:46.074Z,36.10
2023-02-14T16:32:16.510Z,37.47
2023-02-14T16:33:22.554Z,31.98
2023-02-14T16:34:26.563Z,31.72
2023-02-14T16:35:29.622Z,30.22
2023-02-14T16:36:33.688Z,30.82
2023-02-14T16:37:36.079Z,30.22
2023-02-14T16:38:44.196Z,30.78
2023-02-14T16:39:47.748Z,30.38
2023-02-14T16:40:52.439Z,29.93
2023-02-14T16:41:56.569Z,29.93
2023-02-14T16:42:59.909Z,29.77
2023-02-14T16:44:02.779Z,29.15
2023-02-14T16:45:05.360Z,29.27
2023-02-14T16:46:12.365Z,29.98
2023-02-14T16:47:17.325Z,33.15
2023-02-14T16:48:19.760Z,31.07
2023-02-14T16:49:23.729Z,30.53
2023-02-14T16:50:26.242Z,30.85
2023-02-14T16:51:33.677Z,31.58
2023-02-14T16:52:36.372Z,30.17
2023-02-14T16:53:38.794Z,28.92
2023-02-14T16:54:41.353Z,30.25
2023-02-14T16:55:43.761Z,30.07
2023-02-14T16:56:52.811Z,30.73
2023-02-14T16:57:55.278Z,31.62
2023-02-14T16:58:58.258Z,32.77
2023-02-14T17:00:00.682Z,32.02
2023-02-14T17:01:03.561Z,33.27
2023-02-14T17:02:06.416Z,31.83
2023-02-14T17:03:11.561Z,32.88
2023-02-14T17:04:14.009Z,34.25
2023-02-14T17:05:16.542Z,34.83
2023-02-14T17:06:24.338Z,32.93
2023-02-14T17:07:29.834Z,32.72
2023-02-14T17:08:32.334Z,32.43
2023-02-14T17:09:40.033Z,32.42
2023-02-14T17:10:44.811Z,31.47